sensor_id;sensor_type;location;lat;lon;timestamp;temperature;humidity
41142;SHT31;63666;52.284;20.890;2024-01-27T00:00:01;21.64;36.36
41142;SHT31;63666;52.284;20.890;2024-01-27T00:01:49;21.64;36.33
41142;SHT31;63666;52.284;20.890;2024-01-27T00:03:37;21.61;36.41
41142;SHT31;63666;52.284;20.890;2024-01-27T00:05:25;21.60;36.30
41142;SHT31;63666;52.284;20.890;2024-01-27T00:07:12;21.59;36.13
41142;SHT31;63666;52.284;20.890;2024-01-27T00:08:57;21.61;36.12
41142;SHT31;63666;52.284;20.890;2024-01-27T00:10:46;21.58;36.17
41142;SHT31;63666;52.284;20.890;2024-01-27T00:12:36;21.55;36.16
41142;SHT31;63666;52.284;20.890;2024-01-27T00:14:26;21.51;36.20
41142;SHT31;63666;52.284;20.890;2024-01-27T00:16:12;21.49;36.07
41142;SHT31;63666;52.284;20.890;2024-01-27T00:18:02;21.49;35.97
41142;SHT31;63666;52.284;20.890;2024-01-27T00:19:47;21.47;36.16
41142;SHT31;63666;52.284;20.890;2024-01-27T00:21:33;21.46;36.15
41142;SHT31;63666;52.284;20.890;2024-01-27T00:23:20;21.46;36.04
41142;SHT31;63666;52.284;20.890;2024-01-27T00:25:08;21.44;35.97
41142;SHT31;63666;52.284;20.890;2024-01-27T00:26:57;21.44;35.99
41142;SHT31;63666;52.284;20.890;2024-01-27T00:28:44;21.41;36.07
41142;SHT31;63666;52.284;20.890;2024-01-27T00:30:29;21.39;36.12
41142;SHT31;63666;52.284;20.890;2024-01-27T00:32:15;21.40;36.04
41142;SHT31;63666;52.284;20.890;2024-01-27T00:34:05;21.39;36.03
41142;SHT31;63666;52.284;20.890;2024-01-27T00:36:01;21.39;35.96
41142;SHT31;63666;52.284;20.890;2024-01-27T00:37:47;21.39;36.04
41142;SHT31;63666;52.284;20.890;2024-01-27T00:39:32;21.39;36.00
41142;SHT31;63666;52.284;20.890;2024-01-27T00:41:19;21.39;35.94
41142;SHT31;63666;52.284;20.890;2024-01-27T00:43:05;21.36;35.87
41142;SHT31;63666;52.284;20.890;2024-01-27T00:44:50;21.35;35.83
41142;SHT31;63666;52.284;20.890;2024-01-27T00:46:38;21.35;35.74
41142;SHT31;63666;52.284;20.890;2024-01-27T00:48:31;21.31;35.80
41142;SHT31;63666;52.284;20.890;2024-01-27T00:50:20;21.31;35.94
41142;SHT31;63666;52.284;20.890;2024-01-27T00:52:12;21.32;35.76
41142;SHT31;63666;52.284;20.890;2024-01-27T00:54:00;21.30;35.81
41142;SHT31;63666;52.284;20.890;2024-01-27T00:55:49;21.19;35.81
41142;SHT31;63666;52.284;20.890;2024-01-27T00:57:36;21.08;35.99
41142;SHT31;63666;52.284;20.890;2024-01-27T00:59:28;20.94;36.33
41142;SHT31;63666;52.284;20.890;2024-01-27T01:01:18;20.82;36.54
41142;SHT31;63666;52.284;20.890;2024-01-27T01:03:08;20.71;36.66
41142;SHT31;63666;52.284;20.890;2024-01-27T01:05:02;20.67;36.71
41142;SHT31;63666;52.284;20.890;2024-01-27T01:06:52;20.60;36.91
41142;SHT31;63666;52.284;20.890;2024-01-27T01:08:43;20.53;36.94
41142;SHT31;63666;52.284;20.890;2024-01-27T01:10:37;20.49;36.86
41142;SHT31;63666;52.284;20.890;2024-01-27T01:12:26;20.44;36.97
41142;SHT31;63666;52.284;20.890;2024-01-27T01:14:13;20.41;37.03
41142;SHT31;63666;52.284;20.890;2024-01-27T01:16:00;20.37;37.01
41142;SHT31;63666;52.284;20.890;2024-01-27T01:17:49;20.34;36.97
41142;SHT31;63666;52.284;20.890;2024-01-27T01:19:38;20.32;37.06
41142;SHT31;63666;52.284;20.890;2024-01-27T01:21:30;20.31;37.07
41142;SHT31;63666;52.284;20.890;2024-01-27T01:23:19;20.29;37.06
41142;SHT31;63666;52.284;20.890;2024-01-27T01:25:10;20.28;37.07
41142;SHT31;63666;52.284;20.890;2024-01-27T01:27:03;20.24;37.13
41142;SHT31;63666;52.284;20.890;2024-01-27T01:28:48;20.22;37.13
41142;SHT31;63666;52.284;20.890;2024-01-27T01:30:37;20.22;37.14
41142;SHT31;63666;52.284;20.890;2024-01-27T01:32:22;20.17;37.18
41142;SHT31;63666;52.284;20.890;2024-01-27T01:34:09;20.11;37.29
41142;SHT31;63666;52.284;20.890;2024-01-27T01:35:58;20.14;37.29
41142;SHT31;63666;52.284;20.890;2024-01-27T01:37:54;20.12;37.21
41142;SHT31;63666;52.284;20.890;2024-01-27T01:39:46;19.97;37.41
41142;SHT31;63666;52.284;20.890;2024-01-27T01:41:43;19.98;37.43
41142;SHT31;63666;52.284;20.890;2024-01-27T01:43:34;19.96;37.34
41142;SHT31;63666;52.284;20.890;2024-01-27T01:45:25;19.91;37.41
41142;SHT31;63666;52.284;20.890;2024-01-27T01:47:13;19.92;37.37
41142;SHT31;63666;52.284;20.890;2024-01-27T01:49:08;19.90;37.39
41142;SHT31;63666;52.284;20.890;2024-01-27T01:50:56;19.86;37.40
41142;SHT31;63666;52.284;20.890;2024-01-27T01:52:47;19.87;37.40
41142;SHT31;63666;52.284;20.890;2024-01-27T01:54:37;19.87;37.39
41142;SHT31;63666;52.284;20.890;2024-01-27T01:56:28;19.83;37.40
41142;SHT31;63666;52.284;20.890;2024-01-27T01:58:21;19.80;37.50
41142;SHT31;63666;52.284;20.890;2024-01-27T02:00:15;19.80;37.50
41142;SHT31;63666;52.284;20.890;2024-01-27T02:02:03;19.80;37.49
41142;SHT31;63666;52.284;20.890;2024-01-27T02:03:55;19.81;37.47
41142;SHT31;63666;52.284;20.890;2024-01-27T02:05:44;19.77;37.50
41142;SHT31;63666;52.284;20.890;2024-01-27T02:07:29;19.76;37.50
41142;SHT31;63666;52.284;20.890;2024-01-27T02:09:17;19.77;37.49
41142;SHT31;63666;52.284;20.890;2024-01-27T02:11:16;19.79;37.51
41142;SHT31;63666;52.284;20.890;2024-01-27T02:13:14;19.80;37.49
41142;SHT31;63666;52.284;20.890;2024-01-27T02:15:02;19.78;37.51
41142;SHT31;63666;52.284;20.890;2024-01-27T02:16:54;19.76;37.60
41142;SHT31;63666;52.284;20.890;2024-01-27T02:18:49;19.72;37.60
41142;SHT31;63666;52.284;20.890;2024-01-27T02:20:41;19.73;37.64
41142;SHT31;63666;52.284;20.890;2024-01-27T02:22:34;19.70;37.66
41142;SHT31;63666;52.284;20.890;2024-01-27T02:24:22;19.67;37.59
41142;SHT31;63666;52.284;20.890;2024-01-27T02:26:12;19.64;37.69
41142;SHT31;63666;52.284;20.890;2024-01-27T02:28:02;19.63;37.70
41142;SHT31;63666;52.284;20.890;2024-01-27T02:29:48;19.63;37.70
41142;SHT31;63666;52.284;20.890;2024-01-27T02:31:34;19.62;37.66
41142;SHT31;63666;52.284;20.890;2024-01-27T02:33:24;19.63;37.64
41142;SHT31;63666;52.284;20.890;2024-01-27T02:35:20;19.64;37.60
41142;SHT31;63666;52.284;20.890;2024-01-27T02:37:08;19.64;37.50
41142;SHT31;63666;52.284;20.890;2024-01-27T02:39:02;19.63;37.61
41142;SHT31;63666;52.284;20.890;2024-01-27T02:40:50;19.59;37.71
41142;SHT31;63666;52.284;20.890;2024-01-27T02:42:44;19.56;37.67
41142;SHT31;63666;52.284;20.890;2024-01-27T02:44:34;19.56;37.71
41142;SHT31;63666;52.284;20.890;2024-01-27T02:46:21;19.57;37.66
41142;SHT31;63666;52.284;20.890;2024-01-27T02:48:09;19.59;37.64
41142;SHT31;63666;52.284;20.890;2024-01-27T02:50:00;19.59;37.64
41142;SHT31;63666;52.284;20.890;2024-01-27T02:51:49;19.58;37.67
41142;SHT31;63666;52.284;20.890;2024-01-27T02:53:41;19.59;37.57
41142;SHT31;63666;52.284;20.890;2024-01-27T02:55:34;19.54;37.57
41142;SHT31;63666;52.284;20.890;2024-01-27T02:57:29;19.50;37.79
41142;SHT31;63666;52.284;20.890;2024-01-27T02:59:17;19.49;37.73
41142;SHT31;63666;52.284;20.890;2024-01-27T03:01:05;19.50;37.71
41142;SHT31;63666;52.284;20.890;2024-01-27T03:02:53;19.52;37.64
41142;SHT31;63666;52.284;20.890;2024-01-27T03:04:46;19.49;37.50
41142;SHT31;63666;52.284;20.890;2024-01-27T03:06:38;19.46;37.63
41142;SHT31;63666;52.284;20.890;2024-01-27T03:08:32;19.43;37.79
41142;SHT31;63666;52.284;20.890;2024-01-27T03:10:22;19.44;37.69
41142;SHT31;63666;52.284;20.890;2024-01-27T03:12:08;19.42;37.74
41142;SHT31;63666;52.284;20.890;2024-01-27T03:13:57;19.40;37.80
41142;SHT31;63666;52.284;20.890;2024-01-27T03:15:44;19.43;37.64
41142;SHT31;63666;52.284;20.890;2024-01-27T03:17:35;19.42;37.69
41142;SHT31;63666;52.284;20.890;2024-01-27T03:19:21;19.45;37.61
41142;SHT31;63666;52.284;20.890;2024-01-27T03:21:15;19.46;37.66
41142;SHT31;63666;52.284;20.890;2024-01-27T03:23:02;19.48;37.53
41142;SHT31;63666;52.284;20.890;2024-01-27T03:24:54;19.43;37.59
41142;SHT31;63666;52.284;20.890;2024-01-27T03:26:47;19.38;37.69
41142;SHT31;63666;52.284;20.890;2024-01-27T03:28:32;19.35;37.69
41142;SHT31;63666;52.284;20.890;2024-01-27T03:30:19;19.34;37.72
41142;SHT31;63666;52.284;20.890;2024-01-27T03:32:13;19.35;37.67
41142;SHT31;63666;52.284;20.890;2024-01-27T03:34:06;19.37;37.64
41142;SHT31;63666;52.284;20.890;2024-01-27T03:35:52;19.33;37.70
41142;SHT31;63666;52.284;20.890;2024-01-27T03:37:41;19.29;37.73
41142;SHT31;63666;52.284;20.890;2024-01-27T03:39:27;19.29;37.74
41142;SHT31;63666;52.284;20.890;2024-01-27T03:41:20;19.34;37.69
41142;SHT31;63666;52.284;20.890;2024-01-27T03:43:08;19.35;37.61
41142;SHT31;63666;52.284;20.890;2024-01-27T03:45:01;19.36;37.69
41142;SHT31;63666;52.284;20.890;2024-01-27T03:46:48;19.36;37.64
41142;SHT31;63666;52.284;20.890;2024-01-27T03:48:36;19.33;37.66
41142;SHT31;63666;52.284;20.890;2024-01-27T03:50:31;19.35;37.64
41142;SHT31;63666;52.284;20.890;2024-01-27T03:52:24;19.30;37.66
41142;SHT31;63666;52.284;20.890;2024-01-27T03:54:12;19.32;37.60
41142;SHT31;63666;52.284;20.890;2024-01-27T03:56:06;19.29;37.64
41142;SHT31;63666;52.284;20.890;2024-01-27T03:57:54;19.26;37.66
41142;SHT31;63666;52.284;20.890;2024-01-27T03:59:41;19.26;37.48
41142;SHT31;63666;52.284;20.890;2024-01-27T04:01:30;19.27;37.54
41142;SHT31;63666;52.284;20.890;2024-01-27T04:03:21;19.27;37.59
41142;SHT31;63666;52.284;20.890;2024-01-27T04:05:13;19.26;37.51
41142;SHT31;63666;52.284;20.890;2024-01-27T04:06:58;19.26;37.49
41142;SHT31;63666;52.284;20.890;2024-01-27T04:08:43;19.26;37.50
41142;SHT31;63666;52.284;20.890;2024-01-27T04:10:34;19.23;37.53
41142;SHT31;63666;52.284;20.890;2024-01-27T04:12:27;19.24;37.54
41142;SHT31;63666;52.284;20.890;2024-01-27T04:14:14;19.28;37.50
41142;SHT31;63666;52.284;20.890;2024-01-27T04:15:59;19.26;37.52
41142;SHT31;63666;52.284;20.890;2024-01-27T04:17:49;19.25;37.54
41142;SHT31;63666;52.284;20.890;2024-01-27T04:19:41;19.25;37.54
41142;SHT31;63666;52.284;20.890;2024-01-27T04:21:31;19.26;37.49
41142;SHT31;63666;52.284;20.890;2024-01-27T04:23:18;19.23;37.59
41142;SHT31;63666;52.284;20.890;2024-01-27T04:25:05;19.28;37.51
41142;SHT31;63666;52.284;20.890;2024-01-27T04:26:50;19.28;37.50
41142;SHT31;63666;52.284;20.890;2024-01-27T04:28:37;19.24;37.50
41142;SHT31;63666;52.284;20.890;2024-01-27T04:30:31;19.26;37.51
41142;SHT31;63666;52.284;20.890;2024-01-27T04:32:18;19.25;37.53
41142;SHT31;63666;52.284;20.890;2024-01-27T04:34:07;19.22;37.56
41142;SHT31;63666;52.284;20.890;2024-01-27T04:35:58;19.23;37.50
41142;SHT31;63666;52.284;20.890;2024-01-27T04:37:44;19.20;37.51
41142;SHT31;63666;52.284;20.890;2024-01-27T04:39:32;19.18;37.57
41142;SHT31;63666;52.284;20.890;2024-01-27T04:41:22;19.20;37.50
41142;SHT31;63666;52.284;20.890;2024-01-27T04:43:08;19.19;37.50
41142;SHT31;63666;52.284;20.890;2024-01-27T04:44:54;19.18;37.53
41142;SHT31;63666;52.284;20.890;2024-01-27T04:46:44;19.13;37.60
41142;SHT31;63666;52.284;20.890;2024-01-27T04:48:29;19.14;37.60
41142;SHT31;63666;52.284;20.890;2024-01-27T04:50:19;19.15;37.61
41142;SHT31;63666;52.284;20.890;2024-01-27T04:52:09;19.17;38.13
41142;SHT31;63666;52.284;20.890;2024-01-27T04:53:59;19.17;38.36
41142;SHT31;63666;52.284;20.890;2024-01-27T04:55:48;19.19;38.39
41142;SHT31;63666;52.284;20.890;2024-01-27T04:57:39;19.20;38.37
41142;SHT31;63666;52.284;20.890;2024-01-27T04:59:28;19.21;38.37
41142;SHT31;63666;52.284;20.890;2024-01-27T05:01:16;19.24;38.33
41142;SHT31;63666;52.284;20.890;2024-01-27T05:03:05;19.28;38.24
41142;SHT31;63666;52.284;20.890;2024-01-27T05:04:58;19.32;38.10
41142;SHT31;63666;52.284;20.890;2024-01-27T05:06:45;19.36;38.07
41142;SHT31;63666;52.284;20.890;2024-01-27T05:08:33;19.39;38.18
41142;SHT31;63666;52.284;20.890;2024-01-27T05:10:24;19.42;37.99
41142;SHT31;63666;52.284;20.890;2024-01-27T05:12:16;19.45;37.91
41142;SHT31;63666;52.284;20.890;2024-01-27T05:14:01;19.47;37.90
41142;SHT31;63666;52.284;20.890;2024-01-27T05:15:47;19.48;37.89
41142;SHT31;63666;52.284;20.890;2024-01-27T05:17:41;19.52;37.80
41142;SHT31;63666;52.284;20.890;2024-01-27T05:19:34;19.56;37.73
41142;SHT31;63666;52.284;20.890;2024-01-27T05:21:25;19.55;37.70
41142;SHT31;63666;52.284;20.890;2024-01-27T05:23:15;19.57;37.67
41142;SHT31;63666;52.284;20.890;2024-01-27T05:25:03;19.62;37.57
41142;SHT31;63666;52.284;20.890;2024-01-27T05:26:51;19.65;37.60
41142;SHT31;63666;52.284;20.890;2024-01-27T05:28:37;19.68;37.61
41142;SHT31;63666;52.284;20.890;2024-01-27T05:30:28;19.73;37.57
41142;SHT31;63666;52.284;20.890;2024-01-27T05:32:26;19.78;37.59
41142;SHT31;63666;52.284;20.890;2024-01-27T05:34:21;19.81;37.54
41142;SHT31;63666;52.284;20.890;2024-01-27T05:36:10;19.83;37.57
41142;SHT31;63666;52.284;20.890;2024-01-27T05:38:02;19.87;37.49
41142;SHT31;63666;52.284;20.890;2024-01-27T05:39:48;19.89;37.51
41142;SHT31;63666;52.284;20.890;2024-01-27T05:41:37;19.92;37.47
41142;SHT31;63666;52.284;20.890;2024-01-27T05:43:30;19.94;37.41
41142;SHT31;63666;52.284;20.890;2024-01-27T05:45:29;19.97;37.44
41142;SHT31;63666;52.284;20.890;2024-01-27T05:47:15;20.01;37.41
41142;SHT31;63666;52.284;20.890;2024-01-27T05:49:09;20.05;37.40
41142;SHT31;63666;52.284;20.890;2024-01-27T05:51:00;20.07;37.36
41142;SHT31;63666;52.284;20.890;2024-01-27T05:52:51;20.05;37.40
41142;SHT31;63666;52.284;20.890;2024-01-27T05:54:41;20.05;37.43
41142;SHT31;63666;52.284;20.890;2024-01-27T05:56:28;20.09;37.39
41142;SHT31;63666;52.284;20.890;2024-01-27T05:58:21;20.13;37.33
41142;SHT31;63666;52.284;20.890;2024-01-27T06:00:12;20.13;37.30
41142;SHT31;63666;52.284;20.890;2024-01-27T06:01:58;20.15;37.34
41142;SHT31;63666;52.284;20.890;2024-01-27T06:03:46;20.17;37.33
41142;SHT31;63666;52.284;20.890;2024-01-27T06:05:34;20.19;37.30
41142;SHT31;63666;52.284;20.890;2024-01-27T06:07:20;20.22;37.23
41142;SHT31;63666;52.284;20.890;2024-01-27T06:09:08;20.25;37.19
41142;SHT31;63666;52.284;20.890;2024-01-27T06:10:58;20.29;37.13
41142;SHT31;63666;52.284;20.890;2024-01-27T06:12:48;20.30;37.10
41142;SHT31;63666;52.284;20.890;2024-01-27T06:14:44;20.30;37.10
41142;SHT31;63666;52.284;20.890;2024-01-27T06:16:38;20.29;37.10
41142;SHT31;63666;52.284;20.890;2024-01-27T06:18:32;20.31;37.09
41142;SHT31;63666;52.284;20.890;2024-01-27T06:20:25;20.35;37.00
41142;SHT31;63666;52.284;20.890;2024-01-27T06:22:11;20.36;37.00
41142;SHT31;63666;52.284;20.890;2024-01-27T06:24:03;20.39;36.99
41142;SHT31;63666;52.284;20.890;2024-01-27T06:25:52;20.39;36.94
41142;SHT31;63666;52.284;20.890;2024-01-27T06:27:41;20.42;36.90
41142;SHT31;63666;52.284;20.890;2024-01-27T06:29:32;20.43;36.87
41142;SHT31;63666;52.284;20.890;2024-01-27T06:31:19;20.44;36.83
41142;SHT31;63666;52.284;20.890;2024-01-27T06:33:10;20.45;36.79
41142;SHT31;63666;52.284;20.890;2024-01-27T06:35:03;20.45;36.80
41142;SHT31;63666;52.284;20.890;2024-01-27T06:36:51;20.42;36.69
41142;SHT31;63666;52.284;20.890;2024-01-27T06:38:39;20.43;36.76
41142;SHT31;63666;52.284;20.890;2024-01-27T06:40:26;20.46;36.70
41142;SHT31;63666;52.284;20.890;2024-01-27T06:42:15;20.48;36.66
41142;SHT31;63666;52.284;20.890;2024-01-27T06:44:05;20.50;36.61
41142;SHT31;63666;52.284;20.890;2024-01-27T06:45:51;20.49;36.56
41142;SHT31;63666;52.284;20.890;2024-01-27T06:47:49;20.50;36.53
41142;SHT31;63666;52.284;20.890;2024-01-27T06:49:40;20.52;36.49
41142;SHT31;63666;52.284;20.890;2024-01-27T06:51:30;20.54;36.44
41142;SHT31;63666;52.284;20.890;2024-01-27T06:53:24;20.58;36.41
41142;SHT31;63666;52.284;20.890;2024-01-27T06:55:16;20.55;36.46
41142;SHT31;63666;52.284;20.890;2024-01-27T06:57:03;20.60;36.40
41142;SHT31;63666;52.284;20.890;2024-01-27T06:58:48;20.60;36.38
41142;SHT31;63666;52.284;20.890;2024-01-27T07:00:39;20.62;36.39
41142;SHT31;63666;52.284;20.890;2024-01-27T07:02:31;20.64;36.39
41142;SHT31;63666;52.284;20.890;2024-01-27T07:04:21;20.64;36.39
41142;SHT31;63666;52.284;20.890;2024-01-27T07:06:12;20.66;36.34
41142;SHT31;63666;52.284;20.890;2024-01-27T07:08:01;20.67;36.36
41142;SHT31;63666;52.284;20.890;2024-01-27T07:09:48;20.69;36.37
41142;SHT31;63666;52.284;20.890;2024-01-27T07:11:36;20.71;36.31
41142;SHT31;63666;52.284;20.890;2024-01-27T07:13:32;20.72;36.31
41142;SHT31;63666;52.284;20.890;2024-01-27T07:15:22;20.72;36.30
41142;SHT31;63666;52.284;20.890;2024-01-27T07:17:11;20.70;36.30
41142;SHT31;63666;52.284;20.890;2024-01-27T07:19:08;20.73;36.29
41142;SHT31;63666;52.284;20.890;2024-01-27T07:21:02;20.76;36.21
41142;SHT31;63666;52.284;20.890;2024-01-27T07:22:53;20.76;36.23
41142;SHT31;63666;52.284;20.890;2024-01-27T07:24:44;20.78;36.19
41142;SHT31;63666;52.284;20.890;2024-01-27T07:26:36;20.80;36.17
41142;SHT31;63666;52.284;20.890;2024-01-27T07:28:28;20.78;36.20
41142;SHT31;63666;52.284;20.890;2024-01-27T07:30:16;20.78;36.19
41142;SHT31;63666;52.284;20.890;2024-01-27T07:32:03;20.79;36.19
41142;SHT31;63666;52.284;20.890;2024-01-27T07:33:53;20.79;36.20
41142;SHT31;63666;52.284;20.890;2024-01-27T07:35:46;20.82;36.14
41142;SHT31;63666;52.284;20.890;2024-01-27T07:37:34;20.83;36.13
41142;SHT31;63666;52.284;20.890;2024-01-27T07:39:22;20.81;36.11
41142;SHT31;63666;52.284;20.890;2024-01-27T07:41:09;20.83;36.11
41142;SHT31;63666;52.284;20.890;2024-01-27T07:42:57;20.85;36.10
41142;SHT31;63666;52.284;20.890;2024-01-27T07:44:49;20.86;36.10
41142;SHT31;63666;52.284;20.890;2024-01-27T07:46:40;20.86;36.04
41142;SHT31;63666;52.284;20.890;2024-01-27T07:48:36;20.84;36.11
41142;SHT31;63666;52.284;20.890;2024-01-27T07:50:31;20.82;36.17
41142;SHT31;63666;52.284;20.890;2024-01-27T07:52:31;20.80;36.20
41142;SHT31;63666;52.284;20.890;2024-01-27T07:54:21;20.78;36.16
41142;SHT31;63666;52.284;20.890;2024-01-27T07:56:15;20.72;36.24
41142;SHT31;63666;52.284;20.890;2024-01-27T07:58:05;20.70;36.23
41142;SHT31;63666;52.284;20.890;2024-01-27T07:59:59;20.63;36.16
41142;SHT31;63666;52.284;20.890;2024-01-27T08:01:51;20.64;36.17
41142;SHT31;63666;52.284;20.890;2024-01-27T08:03:41;20.62;36.13
41142;SHT31;63666;52.284;20.890;2024-01-27T08:05:31;20.62;36.11
41142;SHT31;63666;52.284;20.890;2024-01-27T08:07:26;20.60;36.17
41142;SHT31;63666;52.284;20.890;2024-01-27T08:09:14;20.50;36.19
41142;SHT31;63666;52.284;20.890;2024-01-27T08:11:07;20.50;36.21
41142;SHT31;63666;52.284;20.890;2024-01-27T08:12:53;20.48;36.17
41142;SHT31;63666;52.284;20.890;2024-01-27T08:14:40;20.46;36.13
41142;SHT31;63666;52.284;20.890;2024-01-27T08:16:29;20.46;36.11
41142;SHT31;63666;52.284;20.890;2024-01-27T08:18:19;20.44;36.17
41142;SHT31;63666;52.284;20.890;2024-01-27T08:20:08;20.42;36.13
41142;SHT31;63666;52.284;20.890;2024-01-27T08:21:54;20.38;36.47
41142;SHT31;63666;52.284;20.890;2024-01-27T08:23:40;20.34;37.40
41142;SHT31;63666;52.284;20.890;2024-01-27T08:25:30;20.37;37.53
41142;SHT31;63666;52.284;20.890;2024-01-27T08:27:20;20.36;37.94
41142;SHT31;63666;52.284;20.890;2024-01-27T08:29:05;20.35;37.77
41142;SHT31;63666;52.284;20.890;2024-01-27T08:30:54;20.34;37.57
41142;SHT31;63666;52.284;20.890;2024-01-27T08:33:01;20.31;37.34
41142;SHT31;63666;52.284;20.890;2024-01-27T08:34:47;20.32;37.21
41142;SHT31;63666;52.284;20.890;2024-01-27T08:36:35;20.33;37.20
41142;SHT31;63666;52.284;20.890;2024-01-27T08:38:23;20.33;37.20
41142;SHT31;63666;52.284;20.890;2024-01-27T08:40:13;20.30;37.24
41142;SHT31;63666;52.284;20.890;2024-01-27T08:42:00;20.28;37.28
41142;SHT31;63666;52.284;20.890;2024-01-27T08:43:47;20.27;37.24
41142;SHT31;63666;52.284;20.890;2024-01-27T08:45:36;20.25;37.29
41142;SHT31;63666;52.284;20.890;2024-01-27T08:47:26;20.25;37.27
41142;SHT31;63666;52.284;20.890;2024-01-27T08:49:12;20.22;37.33
41142;SHT31;63666;52.284;20.890;2024-01-27T08:51:01;20.24;37.43
41142;SHT31;63666;52.284;20.890;2024-01-27T08:52:48;20.30;38.39
41142;SHT31;63666;52.284;20.890;2024-01-27T08:54:40;20.29;38.39
41142;SHT31;63666;52.284;20.890;2024-01-27T08:56:30;20.29;38.26
41142;SHT31;63666;52.284;20.890;2024-01-27T08:58:16;20.31;38.27
41142;SHT31;63666;52.284;20.890;2024-01-27T09:00:06;20.33;38.24
41142;SHT31;63666;52.284;20.890;2024-01-27T09:01:53;20.36;38.20
41142;SHT31;63666;52.284;20.890;2024-01-27T09:03:42;20.40;38.20
41142;SHT31;63666;52.284;20.890;2024-01-27T09:05:30;20.44;38.17
41142;SHT31;63666;52.284;20.890;2024-01-27T09:07:17;20.48;38.24
41142;SHT31;63666;52.284;20.890;2024-01-27T09:09:08;20.54;38.21
41142;SHT31;63666;52.284;20.890;2024-01-27T09:10:55;20.59;38.11
41142;SHT31;63666;52.284;20.890;2024-01-27T09:12:44;20.66;38.06
41142;SHT31;63666;52.284;20.890;2024-01-27T09:14:29;20.68;38.00
41142;SHT31;63666;52.284;20.890;2024-01-27T09:16:16;20.70;38.03
41142;SHT31;63666;52.284;20.890;2024-01-27T09:18:03;20.76;38.00
41142;SHT31;63666;52.284;20.890;2024-01-27T09:19:51;20.79;37.90
41142;SHT31;63666;52.284;20.890;2024-01-27T09:21:40;20.84;37.79
41142;SHT31;63666;52.284;20.890;2024-01-27T09:23:27;20.85;37.83
41142;SHT31;63666;52.284;20.890;2024-01-27T09:25:14;20.85;37.83
41142;SHT31;63666;52.284;20.890;2024-01-27T09:27:00;20.90;37.81
41142;SHT31;63666;52.284;20.890;2024-01-27T09:28:47;20.90;37.80
41142;SHT31;63666;52.284;20.890;2024-01-27T09:30:36;20.91;37.80
41142;SHT31;63666;52.284;20.890;2024-01-27T09:32:29;20.92;37.71
41142;SHT31;63666;52.284;20.890;2024-01-27T09:34:19;20.90;37.76
41142;SHT31;63666;52.284;20.890;2024-01-27T09:36:10;20.95;37.64
41142;SHT31;63666;52.284;20.890;2024-01-27T09:37:54;20.97;37.60
41142;SHT31;63666;52.284;20.890;2024-01-27T09:39:39;20.98;37.57
41142;SHT31;63666;52.284;20.890;2024-01-27T09:41:28;20.99;37.80
41142;SHT31;63666;52.284;20.890;2024-01-27T09:43:17;21.01;38.07
41142;SHT31;63666;52.284;20.890;2024-01-27T09:45:05;21.00;38.14
41142;SHT31;63666;52.284;20.890;2024-01-27T09:46:52;20.99;38.01
41142;SHT31;63666;52.284;20.890;2024-01-27T09:48:38;21.01;37.95
41142;SHT31;63666;52.284;20.890;2024-01-27T09:50:27;21.05;37.80
41142;SHT31;63666;52.284;20.890;2024-01-27T09:52:18;21.05;37.70
41142;SHT31;63666;52.284;20.890;2024-01-27T09:54:12;21.08;37.69
41142;SHT31;63666;52.284;20.890;2024-01-27T09:56:02;21.10;37.61
41142;SHT31;63666;52.284;20.890;2024-01-27T09:57:47;21.12;37.55
41142;SHT31;63666;52.284;20.890;2024-01-27T09:59:35;21.13;37.60
41142;SHT31;63666;52.284;20.890;2024-01-27T10:01:28;21.11;37.53
41142;SHT31;63666;52.284;20.890;2024-01-27T10:03:17;21.12;37.50
41142;SHT31;63666;52.284;20.890;2024-01-27T10:05:08;21.10;37.56
41142;SHT31;63666;52.284;20.890;2024-01-27T10:06:53;21.11;37.52
41142;SHT31;63666;52.284;20.890;2024-01-27T10:08:41;21.11;37.51
41142;SHT31;63666;52.284;20.890;2024-01-27T10:10:35;21.09;37.50
41142;SHT31;63666;52.284;20.890;2024-01-27T10:12:23;21.06;37.56
41142;SHT31;63666;52.284;20.890;2024-01-27T10:14:11;21.07;37.67
41142;SHT31;63666;52.284;20.890;2024-01-27T10:16:03;21.07;37.87
41142;SHT31;63666;52.284;20.890;2024-01-27T10:17:50;21.06;38.23
41142;SHT31;63666;52.284;20.890;2024-01-27T10:19:46;21.05;38.34
41142;SHT31;63666;52.284;20.890;2024-01-27T10:21:45;21.03;38.30
41142;SHT31;63666;52.284;20.890;2024-01-27T10:23:46;21.01;38.49
41142;SHT31;63666;52.284;20.890;2024-01-27T10:25:38;21.02;39.23
41142;SHT31;63666;52.284;20.890;2024-01-27T10:27:24;21.01;39.93
41142;SHT31;63666;52.284;20.890;2024-01-27T10:29:09;20.95;40.10
41142;SHT31;63666;52.284;20.890;2024-01-27T10:30:55;20.94;40.12
41142;SHT31;63666;52.284;20.890;2024-01-27T10:33:09;20.90;40.13
41142;SHT31;63666;52.284;20.890;2024-01-27T10:35:04;20.90;40.10
41142;SHT31;63666;52.284;20.890;2024-01-27T10:36:50;20.86;40.06
41142;SHT31;63666;52.284;20.890;2024-01-27T10:38:37;20.82;40.12
41142;SHT31;63666;52.284;20.890;2024-01-27T10:40:22;20.82;40.09
41142;SHT31;63666;52.284;20.890;2024-01-27T10:42:07;20.83;40.10
41142;SHT31;63666;52.284;20.890;2024-01-27T10:43:53;20.82;40.01
41142;SHT31;63666;52.284;20.890;2024-01-27T10:45:43;20.81;39.99
41142;SHT31;63666;52.284;20.890;2024-01-27T10:47:35;20.77;39.94
41142;SHT31;63666;52.284;20.890;2024-01-27T10:49:21;20.70;40.14
41142;SHT31;63666;52.284;20.890;2024-01-27T10:51:08;20.67;40.02
41142;SHT31;63666;52.284;20.890;2024-01-27T10:52:53;20.65;39.91
41142;SHT31;63666;52.284;20.890;2024-01-27T10:54:42;20.70;40.01
41142;SHT31;63666;52.284;20.890;2024-01-27T10:56:28;20.73;39.88
41142;SHT31;63666;52.284;20.890;2024-01-27T10:58:15;20.73;39.93
41142;SHT31;63666;52.284;20.890;2024-01-27T11:00:06;20.74;39.90
41142;SHT31;63666;52.284;20.890;2024-01-27T11:01:52;20.70;40.00
41142;SHT31;63666;52.284;20.890;2024-01-27T11:03:39;20.71;39.99
41142;SHT31;63666;52.284;20.890;2024-01-27T11:05:34;20.67;40.14
41142;SHT31;63666;52.284;20.890;2024-01-27T11:07:23;20.66;40.21
41142;SHT31;63666;52.284;20.890;2024-01-27T11:09:10;20.65;40.17
41142;SHT31;63666;52.284;20.890;2024-01-27T11:10:56;20.64;40.26
41142;SHT31;63666;52.284;20.890;2024-01-27T11:12:42;20.64;40.22
41142;SHT31;63666;52.284;20.890;2024-01-27T11:14:39;20.63;40.23
41142;SHT31;63666;52.284;20.890;2024-01-27T11:16:26;20.59;40.19
41142;SHT31;63666;52.284;20.890;2024-01-27T11:18:11;20.57;40.25
41142;SHT31;63666;52.284;20.890;2024-01-27T11:19:58;20.53;40.26